createdAt,value
2018-10-11T00:01:48.999Z,23.47
2018-10-11T00:04:18.197Z,23.67
2018-10-11T00:06:47.229Z,22.33
2018-10-11T00:09:16.327Z,23.57
2018-10-11T00:11:45.440Z,23.50
2018-10-11T00:14:14.375Z,24.27
2018-10-11T00:16:43.522Z,22.47
2018-10-11T00:19:12.589Z,24.07
2018-10-11T00:21:41.664Z,23.30
2018-10-11T00:24:10.773Z,22.60
2018-10-11T00:26:40.164Z,23.50
2018-10-11T00:29:09.195Z,23.77
2018-10-11T00:31:38.443Z,23.20
2018-10-11T00:34:07.605Z,22.70
2018-10-11T00:36:36.793Z,22.23
2018-10-11T00:39:06.566Z,22.73
2018-10-11T00:41:35.966Z,22.87
2018-10-11T00:44:05.156Z,23.00
2018-10-11T00:46:34.241Z,23.43
2018-10-11T00:49:03.586Z,22.67
2018-10-11T00:51:32.653Z,21.87
2018-10-11T00:54:01.647Z,22.17
2018-10-11T00:56:30.744Z,21.77
2018-10-11T00:58:59.691Z,20.17
2018-10-11T01:01:28.804Z,21.70
2018-10-11T01:03:58.016Z,21.13
2018-10-11T01:06:27.040Z,20.70
2018-10-11T01:08:55.989Z,20.47
2018-10-11T01:11:25.487Z,19.20
2018-10-11T01:13:54.466Z,20.27
2018-10-11T01:16:24.174Z,19.73
2018-10-11T01:18:53.424Z,19.53
2018-10-11T01:21:22.315Z,19.23
2018-10-11T01:23:51.362Z,19.07
2018-10-11T01:26:20.692Z,18.00
2018-10-11T01:28:49.650Z,18.67
2018-10-11T01:31:21.520Z,18.90
2018-10-11T01:33:50.590Z,17.50
2018-10-11T01:36:19.908Z,18.53
2018-10-11T01:38:51.129Z,19.27
2018-10-11T01:41:20.295Z,19.17
2018-10-11T01:43:49.434Z,19.17
2018-10-11T01:46:18.712Z,19.30
2018-10-11T01:48:47.691Z,17.57
2018-10-11T01:51:16.866Z,17.17
2018-10-11T01:53:46.222Z,17.77
2018-10-11T01:56:15.283Z,18.43
2018-10-11T01:58:44.258Z,18.43
2018-10-11T02:01:13.342Z,18.20
2018-10-11T02:03:42.659Z,18.37
2018-10-11T02:06:11.834Z,18.07
2018-10-11T02:08:40.927Z,17.13
2018-10-11T02:11:09.861Z,17.93
2018-10-11T02:13:38.993Z,17.40
2018-10-11T02:16:08.229Z,18.63
2018-10-11T02:18:37.249Z,18.17
2018-10-11T02:21:06.551Z,18.47
2018-10-11T02:23:36.237Z,17.53
2018-10-11T02:26:05.403Z,18.33
2018-10-11T02:28:34.400Z,18.97
2018-10-11T02:31:03.618Z,18.73
2018-10-11T02:33:32.653Z,18.33
2018-10-11T02:36:01.661Z,20.30
2018-10-11T02:38:31.132Z,21.63
2018-10-11T02:41:00.074Z,21.00
2018-10-11T02:43:29.197Z,21.33
2018-10-11T02:45:58.599Z,19.57
2018-10-11T02:48:27.583Z,20.17
2018-10-11T02:50:56.829Z,18.87
2018-10-11T02:53:26.266Z,18.43
2018-10-11T02:55:55.362Z,20.77
2018-10-11T02:58:35.374Z,19.43
2018-10-11T03:01:04.700Z,18.90
2018-10-11T03:03:33.938Z,20.63
2018-10-11T03:06:03.327Z,20.23
2018-10-11T03:08:32.453Z,20.23
2018-10-11T03:11:01.585Z,19.87
2018-10-11T03:13:30.898Z,21.17
2018-10-11T03:15:59.874Z,21.10
2018-10-11T03:18:28.949Z,23.10
2018-10-11T03:20:58.478Z,20.47
2018-10-11T03:23:27.532Z,21.50
2018-10-11T03:25:56.660Z,20.53
2018-10-11T03:28:26.069Z,19.90
2018-10-11T03:30:55.148Z,21.00
2018-10-11T03:33:24.154Z,21.23
2018-10-11T03:35:53.198Z,21.03
2018-10-11T03:38:22.236Z,22.03
2018-10-11T03:40:51.111Z,21.00
2018-10-11T03:43:20.153Z,22.33
2018-10-11T03:45:49.152Z,22.07
2018-10-11T03:48:18.791Z,23.97
2018-10-11T03:50:48.107Z,23.20
2018-10-11T03:53:17.162Z,22.30
2018-10-11T03:55:46.138Z,21.50
2018-10-11T03:58:15.721Z,22.60
2018-10-11T04:00:45.793Z,21.50
2018-10-11T04:03:16.225Z,22.27
2018-10-11T04:05:45.367Z,22.70
2018-10-11T04:08:14.287Z,22.07
2018-10-11T04:10:43.461Z,23.50
2018-10-11T04:13:12.526Z,22.90
2018-10-11T04:15:41.690Z,22.33
2018-10-11T04:18:10.731Z,22.13
2018-10-11T04:20:39.726Z,23.73
2018-10-11T04:23:12.242Z,21.53
2018-10-11T04:25:41.134Z,21.87
2018-10-11T04:28:10.132Z,21.57
2018-10-11T04:30:39.274Z,25.20
2018-10-11T04:33:08.313Z,23.27
2018-10-11T04:35:37.506Z,25.80
2018-10-11T04:38:07.012Z,24.87
2018-10-11T04:40:35.909Z,23.33
2018-10-11T04:43:04.962Z,56.53
2018-10-11T04:45:34.299Z,26.83
2018-10-11T04:48:03.215Z,24.13
2018-10-11T04:50:32.265Z,22.90
2018-10-11T04:53:01.797Z,23.97
2018-10-11T04:55:30.807Z,27.97
2018-10-11T04:57:59.856Z,25.27
2018-10-11T05:00:29.164Z,26.90
2018-10-11T05:02:58.213Z,24.20
2018-10-11T05:05:27.461Z,24.53
2018-10-11T05:07:56.654Z,24.57
2018-10-11T05:10:25.984Z,25.43
2018-10-11T05:15:33.426Z,25.10
2018-10-11T05:18:02.949Z,26.60
2018-10-11T05:20:31.913Z,27.00
2018-10-11T05:23:01.268Z,25.50
2018-10-11T05:25:30.243Z,25.97
2018-10-11T05:27:59.357Z,23.93
2018-10-11T05:30:28.387Z,23.97
2018-10-11T05:32:57.752Z,22.53
2018-10-11T05:35:26.711Z,23.33
2018-10-11T05:37:55.710Z,25.70
2018-10-11T05:40:24.650Z,23.33
2018-10-11T05:42:53.550Z,23.70
2018-10-11T05:45:24.016Z,23.67
2018-10-11T05:47:53.470Z,24.20
2018-10-11T05:50:22.607Z,24.40
2018-10-11T05:52:51.654Z,24.57
2018-10-11T05:55:20.805Z,22.53
2018-10-11T05:57:50.095Z,23.93
2018-10-11T06:00:19.225Z,23.13
2018-10-11T06:02:57.092Z,22.70
2018-10-11T06:05:26.099Z,23.87
2018-10-11T06:07:55.257Z,21.77
2018-10-11T06:10:24.410Z,21.43
2018-10-11T06:12:53.612Z,21.37
2018-10-11T06:15:22.713Z,22.90
2018-10-11T06:17:51.738Z,23.37
2018-10-11T06:20:21.282Z,20.10
2018-10-11T06:22:50.367Z,19.63
2018-10-11T06:25:19.378Z,19.90
2018-10-11T06:27:48.397Z,18.70
2018-10-11T06:30:17.794Z,18.23
2018-10-11T06:32:47.138Z,18.00
2018-10-11T06:35:16.538Z,17.07
2018-10-11T06:37:45.996Z,17.97
2018-10-11T06:40:15.100Z,17.43
2018-10-11T06:42:44.959Z,18.03
2018-10-11T06:45:15.185Z,18.23
2018-10-11T06:47:46.145Z,17.77
2018-10-11T06:50:15.246Z,17.73
2018-10-11T06:52:44.342Z,17.53
2018-10-11T06:55:13.524Z,17.27
2018-10-11T06:57:42.441Z,17.20
2018-10-11T07:00:11.396Z,17.03
2018-10-11T07:02:40.278Z,17.43
2018-10-11T07:05:09.095Z,16.77
2018-10-11T07:07:38.024Z,17.77
2018-10-11T07:10:07.078Z,17.17
2018-10-11T07:12:36.093Z,18.00
2018-10-11T07:15:05.123Z,17.17
2018-10-11T07:17:34.119Z,17.67
2018-10-11T07:20:03.076Z,16.40
2018-10-11T07:22:32.020Z,17.00
2018-10-11T07:25:01.026Z,17.57
2018-10-11T07:27:29.912Z,16.90
2018-10-11T07:29:58.891Z,16.57
2018-10-11T07:32:28.200Z,18.17
2018-10-11T07:34:57.226Z,17.97
2018-10-11T07:37:26.168Z,16.10
2018-10-11T07:39:55.024Z,16.40
2018-10-11T07:42:23.983Z,16.17
2018-10-11T07:44:52.889Z,17.20
2018-10-11T07:47:22.037Z,16.73
2018-10-11T07:49:50.942Z,17.40
2018-10-11T07:52:19.919Z,16.77
2018-10-11T07:54:48.868Z,16.97
2018-10-11T07:57:17.793Z,16.77
2018-10-11T07:59:46.833Z,16.50
2018-10-11T08:02:16.747Z,16.13
2018-10-11T08:04:45.599Z,17.30
2018-10-11T08:07:14.639Z,15.70
2018-10-11T08:09:43.854Z,15.90
2018-10-11T08:12:12.940Z,16.20
2018-10-11T08:14:41.891Z,15.53
2018-10-11T08:17:11.116Z,16.60
2018-10-11T08:19:39.850Z,15.57
2018-10-11T08:22:08.789Z,16.03
2018-10-11T08:24:37.903Z,16.80
2018-10-11T08:27:07.098Z,15.57
2018-10-11T08:29:36.080Z,16.13
2018-10-11T08:32:05.373Z,15.70
2018-10-11T08:34:34.876Z,15.30
2018-10-11T08:37:04.534Z,16.13
2018-10-11T08:39:34.193Z,16.87
2018-10-11T08:42:03.271Z,16.37
2018-10-11T08:44:32.104Z,16.40
2018-10-11T08:47:01.432Z,16.03
2018-10-11T08:49:30.345Z,16.80
2018-10-11T08:51:59.350Z,16.20
2018-10-11T08:54:33.836Z,16.83
2018-10-11T08:57:03.043Z,19.00
2018-10-11T08:59:32.145Z,16.77
2018-10-11T09:02:01.280Z,17.33
2018-10-11T09:04:30.241Z,18.00
2018-10-11T09:06:59.284Z,16.20
2018-10-11T09:09:28.182Z,16.17
2018-10-11T09:11:57.185Z,16.70
2018-10-11T09:14:26.086Z,17.43
2018-10-11T09:16:55.131Z,17.93
2018-10-11T09:19:24.034Z,17.27
2018-10-11T09:21:52.908Z,15.97
2018-10-11T09:24:22.058Z,17.20
2018-10-11T09:26:50.999Z,16.23
2018-10-11T09:29:19.881Z,16.30
2018-10-11T09:31:48.916Z,15.30
2018-10-11T09:34:17.801Z,14.83
2018-10-11T09:36:46.709Z,14.67
2018-10-11T09:39:15.918Z,14.40
2018-10-11T09:41:44.809Z,14.67
2018-10-11T09:44:13.895Z,15.43
2018-10-11T09:46:42.938Z,13.83
2018-10-11T09:49:11.813Z,13.77
2018-10-11T09:51:40.883Z,13.37
2018-10-11T09:54:09.992Z,11.97
2018-10-11T09:57:45.038Z,13.27
2018-10-11T10:00:19.292Z,12.80
2018-10-11T10:02:48.952Z,12.00
2018-10-11T10:05:17.795Z,12.20
2018-10-11T10:07:47.150Z,12.30
2018-10-11T10:10:16.231Z,12.53
2018-10-11T10:12:45.148Z,11.73
2018-10-11T10:15:14.193Z,13.60
2018-10-11T10:17:43.101Z,12.00
2018-10-11T10:20:12.058Z,13.00
2018-10-11T10:22:41.696Z,13.17
2018-10-11T10:25:10.668Z,12.87
2018-10-11T10:27:39.702Z,12.77
2018-10-11T10:30:13.692Z,13.37
2018-10-11T10:32:42.626Z,12.17
2018-10-11T10:35:11.618Z,12.00
2018-10-11T10:37:40.964Z,12.40
2018-10-11T10:40:11.025Z,11.47
2018-10-11T10:42:40.013Z,12.30
2018-10-11T10:45:09.092Z,12.17
2018-10-11T10:47:39.298Z,12.77
2018-10-11T10:50:08.347Z,12.13
2018-10-11T10:52:37.554Z,12.43
2018-10-11T10:55:06.743Z,12.97
2018-10-11T10:57:35.622Z,13.07
2018-10-11T11:00:04.899Z,13.83
2018-10-11T11:02:33.816Z,14.60
2018-10-11T11:05:02.745Z,14.27
2018-10-11T11:07:31.965Z,13.43
2018-10-11T11:10:00.915Z,14.00
2018-10-11T11:12:29.900Z,13.93
2018-10-11T11:14:58.945Z,14.73
2018-10-11T11:17:27.832Z,15.67
2018-10-11T11:19:56.780Z,14.63
2018-10-11T11:22:25.861Z,14.00
2018-10-11T11:24:54.845Z,13.30
2018-10-11T11:27:23.747Z,12.40
2018-10-11T11:29:53.190Z,10.17
2018-10-11T11:32:22.109Z,9.70
2018-10-11T11:34:51.085Z,9.20
2018-10-11T11:37:20.404Z,10.23
2018-10-11T11:39:49.402Z,10.37
2018-10-11T11:42:18.346Z,9.40
2018-10-11T11:44:47.223Z,9.53
2018-10-11T11:47:16.301Z,9.17
2018-10-11T11:49:45.406Z,8.60
2018-10-11T11:52:14.704Z,9.40
2018-10-11T11:54:43.720Z,9.57
2018-10-11T11:57:12.861Z,11.87
2018-10-11T11:59:42.084Z,8.43
2018-10-11T12:02:11.257Z,7.80
2018-10-11T12:04:40.330Z,8.20
2018-10-11T12:07:09.570Z,8.07
2018-10-11T12:09:38.683Z,7.77
2018-10-11T12:12:07.965Z,7.53
2018-10-11T12:14:37.254Z,7.63
2018-10-11T12:17:06.360Z,7.25
2018-10-11T12:19:35.850Z,8.03
2018-10-11T12:22:05.101Z,8.25
2018-10-11T12:24:34.129Z,8.45
2018-10-11T12:27:03.210Z,7.30
2018-10-11T12:29:32.644Z,6.33
2018-10-11T12:32:01.723Z,7.60
2018-10-11T12:34:30.853Z,7.27
2018-10-11T12:37:00.466Z,7.17
2018-10-11T12:39:29.353Z,7.50
2018-10-11T12:41:58.391Z,7.80
2018-10-11T12:44:27.936Z,7.37
2018-10-11T12:46:57.056Z,7.73
2018-10-11T12:49:26.281Z,7.70
2018-10-11T12:51:55.305Z,8.80
2018-10-11T12:54:24.472Z,8.20
2018-10-11T12:56:53.549Z,7.50
2018-10-11T12:59:22.642Z,8.37
2018-10-11T13:01:51.805Z,8.33
2018-10-11T13:04:20.821Z,8.67
2018-10-11T13:06:50.180Z,8.50
2018-10-11T13:09:19.163Z,8.70
2018-10-11T13:11:48.248Z,9.60
2018-10-11T13:14:17.468Z,8.83
2018-10-11T13:16:46.537Z,8.93
2018-10-11T13:19:15.439Z,8.63
2018-10-11T13:21:44.490Z,9.10
2018-10-11T13:24:13.435Z,10.10
2018-10-11T13:26:42.322Z,8.40
2018-10-11T13:29:11.377Z,8.40
2018-10-11T13:31:40.400Z,9.73
2018-10-11T13:34:09.920Z,10.93
2018-10-11T13:36:38.859Z,9.97
2018-10-11T13:39:08.950Z,10.40
2018-10-11T13:41:37.966Z,9.20
2018-10-11T13:44:07.087Z,10.03
2018-10-11T13:46:36.131Z,11.77
2018-10-11T13:49:05.135Z,11.17
2018-10-11T13:51:34.273Z,9.83
2018-10-11T13:54:03.175Z,10.50
2018-10-11T13:56:32.049Z,9.50
2018-10-11T13:59:04.030Z,9.57
2018-10-11T14:01:30.256Z,10.37
2018-10-11T14:03:59.163Z,10.57
2018-10-11T14:06:28.356Z,11.37
2018-10-11T14:08:57.221Z,11.07
2018-10-11T14:11:26.134Z,14.37
2018-10-11T14:13:55.508Z,13.87
2018-10-11T14:16:24.432Z,11.53
2018-10-11T14:18:53.410Z,10.87
2018-10-11T14:21:22.752Z,11.63
2018-10-11T14:23:51.782Z,9.97
2018-10-11T14:26:20.635Z,12.03
2018-10-11T14:28:50.156Z,11.20
2018-10-11T14:31:19.075Z,10.87
2018-10-11T14:33:48.006Z,11.00
2018-10-11T14:36:17.418Z,12.80
2018-10-11T14:38:46.630Z,11.27
2018-10-11T14:41:15.642Z,11.60
2018-10-11T14:43:44.741Z,11.83
2018-10-11T14:46:13.796Z,13.77
2018-10-11T14:48:43.202Z,12.00
2018-10-11T14:51:12.480Z,11.77
2018-10-11T14:53:42.001Z,11.90
2018-10-11T14:56:11.039Z,12.17
2018-10-11T14:58:40.198Z,12.07
2018-10-11T15:01:09.265Z,13.30
2018-10-11T15:03:38.245Z,13.63
2018-10-11T15:06:07.425Z,11.93
2018-10-11T15:08:36.469Z,13.07
2018-10-11T15:11:05.627Z,13.50
2018-10-11T15:13:34.866Z,14.33
2018-10-11T15:16:03.989Z,13.07
2018-10-11T15:18:33.069Z,13.00
2018-10-11T15:21:02.222Z,12.90
2018-10-11T15:23:31.145Z,12.37
2018-10-11T15:26:00.270Z,14.90
2018-10-11T15:28:29.574Z,13.93
2018-10-11T15:30:58.501Z,17.43
2018-10-11T15:33:27.492Z,19.40
2018-10-11T15:35:56.465Z,28.90
2018-10-11T15:38:25.390Z,23.17
2018-10-11T15:40:54.297Z,23.87
2018-10-11T15:43:23.634Z,55.67
2018-10-11T15:45:52.793Z,29.03
2018-10-11T15:48:21.733Z,23.03
2018-10-11T15:50:50.680Z,23.30
2018-10-11T15:53:19.676Z,16.90
2018-10-11T15:55:48.600Z,16.63
2018-10-11T15:58:17.892Z,17.37
2018-10-11T16:00:46.851Z,13.77
2018-10-11T16:03:15.954Z,15.27
2018-10-11T16:05:45.264Z,13.70
2018-10-11T16:08:14.180Z,13.00
2018-10-11T16:10:44.232Z,14.57
2018-10-11T16:13:13.339Z,16.37
2018-10-11T16:15:42.402Z,14.50
2018-10-11T16:18:11.451Z,13.23
2018-10-11T16:20:40.605Z,14.40
2018-10-11T16:23:09.676Z,13.70
2018-10-11T16:25:38.584Z,13.97
2018-10-11T16:28:07.557Z,16.07
2018-10-11T16:30:36.599Z,13.03
2018-10-11T16:33:06.072Z,14.17
2018-10-11T16:35:36.083Z,17.43
2018-10-11T16:38:05.361Z,14.10
2018-10-11T16:40:34.506Z,16.30
2018-10-11T16:43:04.656Z,14.57
2018-10-11T16:45:40.091Z,14.10
2018-10-11T16:48:09.164Z,13.13
2018-10-11T16:50:38.197Z,14.67
2018-10-11T16:53:07.391Z,14.23
2018-10-11T16:55:36.881Z,13.63
2018-10-11T16:58:06.059Z,13.97
2018-10-11T17:00:35.018Z,14.73
2018-10-11T17:03:04.257Z,15.37
2018-10-11T17:05:33.437Z,15.77
2018-10-11T17:08:02.384Z,14.90
2018-10-11T17:10:31.292Z,15.40
2018-10-11T17:13:00.280Z,15.30
2018-10-11T17:15:29.272Z,16.73
2018-10-11T17:17:58.263Z,20.07
2018-10-11T17:20:27.249Z,18.87
2018-10-11T17:22:56.299Z,17.40
2018-10-11T17:25:25.447Z,17.03
2018-10-11T17:27:54.645Z,16.00
2018-10-11T17:30:23.627Z,16.83
2018-10-11T17:32:53.027Z,17.30
2018-10-11T17:35:22.227Z,16.57
2018-10-11T17:37:51.209Z,17.07
2018-10-11T17:40:20.275Z,17.03
2018-10-11T17:42:49.431Z,17.53
2018-10-11T17:45:18.545Z,20.37
2018-10-11T17:47:47.591Z,15.97
2018-10-11T17:50:16.784Z,16.17
2018-10-11T17:52:46.117Z,17.60
2018-10-11T17:55:15.302Z,15.37
2018-10-11T17:57:45.069Z,16.00
2018-10-11T18:00:14.461Z,15.70
2018-10-11T18:02:43.847Z,17.20
2018-10-11T18:05:13.216Z,18.60
2018-10-11T18:07:42.335Z,20.67
2018-10-11T18:10:11.679Z,17.97
2018-10-11T18:12:40.797Z,16.40
2018-10-11T18:15:09.883Z,17.90
2018-10-11T18:17:39.129Z,18.27
2018-10-11T18:20:08.425Z,17.83
2018-10-11T18:22:37.540Z,19.33
2018-10-11T18:25:06.635Z,18.97
2018-10-11T18:27:36.681Z,18.67
2018-10-11T18:30:06.061Z,17.40
2018-10-11T18:32:35.288Z,17.83
2018-10-11T18:35:04.527Z,18.60
2018-10-11T18:37:34.582Z,18.93
2018-10-11T18:40:03.637Z,19.33
2018-10-11T18:42:32.713Z,18.70
2018-10-11T18:45:02.044Z,18.50
2018-10-11T18:47:31.066Z,18.43
2018-10-11T18:50:00.145Z,19.83
2018-10-11T18:52:29.321Z,19.63
2018-10-11T18:54:58.350Z,21.30
2018-10-11T18:57:27.478Z,19.43
2018-10-11T18:59:57.097Z,19.97
2018-10-11T19:02:26.139Z,18.73
2018-10-11T19:04:55.176Z,18.73
2018-10-11T19:07:24.412Z,18.93
2018-10-11T19:09:54.338Z,21.40
2018-10-11T19:12:23.400Z,19.90
2018-10-11T19:14:52.365Z,26.17
2018-10-11T19:17:21.516Z,22.50
2018-10-11T19:19:50.569Z,22.07
2018-10-11T19:22:19.883Z,21.83
2018-10-11T19:24:49.013Z,22.47
2018-10-11T19:27:18.040Z,21.13
2018-10-11T19:29:47.094Z,19.67
2018-10-11T19:32:16.351Z,21.37
2018-10-11T19:34:45.442Z,20.17
2018-10-11T19:37:14.384Z,19.50
2018-10-11T19:39:43.581Z,18.80
2018-10-11T19:42:12.528Z,20.50
2018-10-11T19:44:41.714Z,20.10
2018-10-11T19:47:10.803Z,20.83
2018-10-11T19:49:39.908Z,21.10
2018-10-11T19:52:09.229Z,18.53
2018-10-11T19:54:38.209Z,20.90
2018-10-11T19:57:07.473Z,20.33
2018-10-11T19:59:36.682Z,21.93
2018-10-11T20:02:06.129Z,23.80
2018-10-11T20:04:35.306Z,23.13
2018-10-11T20:07:04.520Z,24.97
2018-10-11T20:09:34.016Z,24.27
2018-10-11T20:12:03.075Z,25.30
2018-10-11T20:14:32.314Z,24.67
2018-10-11T20:17:01.338Z,33.00
2018-10-11T20:19:30.391Z,28.60
2018-10-11T20:21:59.988Z,26.37
2018-10-11T20:24:29.025Z,26.83
2018-10-11T20:26:58.022Z,27.70
2018-10-11T20:29:27.181Z,28.40
2018-10-11T20:31:56.217Z,25.13
2018-10-11T20:34:25.460Z,27.90
2018-10-11T20:36:54.906Z,28.10
2018-10-11T20:39:24.039Z,26.93
2018-10-11T20:41:53.130Z,24.53
2018-10-11T20:44:22.324Z,23.43
2018-10-11T20:46:51.478Z,24.50
2018-10-11T20:49:20.363Z,21.87
2018-10-11T20:51:49.346Z,20.23
2018-10-11T20:54:18.399Z,17.27
2018-10-11T20:56:47.421Z,15.40
2018-10-11T20:59:16.592Z,13.97
2018-10-11T21:01:45.722Z,13.53
2018-10-11T21:04:15.057Z,13.90
2018-10-11T21:06:44.169Z,13.47
2018-10-11T21:09:14.351Z,13.07
2018-10-11T21:11:43.683Z,13.53
2018-10-11T21:14:12.738Z,12.77
2018-10-11T21:16:41.696Z,11.13
2018-10-11T21:19:11.070Z,10.97
2018-10-11T21:21:40.229Z,10.63
2018-10-11T21:24:09.253Z,11.37
2018-10-11T21:26:38.556Z,11.23
2018-10-11T21:29:07.528Z,12.40
2018-10-11T21:31:36.650Z,12.73
2018-10-11T21:34:07.151Z,12.50
2018-10-11T21:36:36.288Z,13.47
2018-10-11T21:39:09.901Z,13.70
2018-10-11T21:41:38.983Z,13.87
2018-10-11T21:44:07.940Z,11.43
2018-10-11T21:46:36.952Z,11.90
2018-10-11T21:49:06.018Z,12.33
2018-10-11T21:51:35.197Z,11.23
2018-10-11T21:54:04.508Z,10.90
2018-10-11T21:56:33.469Z,13.63
2018-10-11T21:59:02.613Z,17.83
2018-10-11T22:01:31.832Z,16.83
2018-10-11T22:04:00.758Z,18.53
2018-10-11T22:06:30.004Z,19.73
2018-10-11T22:08:59.298Z,19.83
2018-10-11T22:11:28.289Z,21.53
2018-10-11T22:13:57.317Z,21.37
2018-10-11T22:16:26.409Z,20.63
2018-10-11T22:18:55.519Z,21.47
2018-10-11T22:21:24.699Z,23.20
2018-10-11T22:23:54.235Z,23.07
2018-10-11T22:26:23.217Z,22.03
2018-10-11T22:28:52.249Z,22.03
2018-10-11T22:31:21.241Z,21.57
2018-10-11T22:33:50.267Z,23.00
2018-10-11T22:36:19.385Z,22.27
2018-10-11T22:38:48.795Z,23.23
2018-10-11T22:41:17.997Z,22.30
2018-10-11T22:43:47.167Z,24.70
2018-10-11T22:46:16.150Z,23.90
2018-10-11T22:48:45.259Z,22.97
2018-10-11T22:51:15.525Z,24.97
2018-10-11T22:53:44.740Z,22.50
2018-10-11T22:56:13.853Z,23.60
2018-10-11T22:58:42.814Z,24.03
2018-10-11T23:01:11.833Z,24.83
2018-10-11T23:03:40.944Z,24.23
2018-10-11T23:06:15.261Z,23.37
2018-10-11T23:08:44.325Z,26.20
2018-10-11T23:11:13.493Z,29.60
2018-10-11T23:13:42.980Z,32.87
2018-10-11T23:16:12.212Z,35.13
2018-10-11T23:18:42.132Z,34.47
2018-10-11T23:21:12.264Z,52.90
2018-10-11T23:23:42.127Z,46.40
2018-10-11T23:26:11.087Z,39.50
2018-10-11T23:28:41.352Z,30.77
2018-10-11T23:31:11.258Z,27.33
2018-10-11T23:33:40.661Z,28.33
2018-10-11T23:36:09.680Z,25.83
2018-10-11T23:38:38.886Z,26.53
2018-10-11T23:41:08.785Z,26.57
2018-10-11T23:43:38.094Z,26.67
2018-10-11T23:46:07.634Z,25.33
2018-10-11T23:48:36.936Z,25.40
2018-10-11T23:51:05.908Z,22.83
2018-10-11T23:53:35.000Z,22.70
2018-10-11T23:56:04.232Z,22.00
2018-10-11T23:58:33.325Z,22.93
